Time;durP1;ratioP1;P1;durP2;ratioP2;P2;SDS_P1;SDS_P2;PMS_P1;PMS_P2;Temp;Humidity;BMP_temperature;BMP_pressure;BME280_temperature;BME280_humidity;BME280_pressure;Samples;Min_cycle;Max_cycle;Signal;HPM_P1;HPM_P2
2022/05/19 00:01:24;;;;;;;37.60;20.90;;;18.50;99.90;;;;;;4958598;29;20474;-77
2022/05/19 00:03:50;;;;;;;40.77;22.10;;;18.50;99.90;;;;;;4941415;29;20043;-78
2022/05/19 00:06:16;;;;;;;38.47;22.00;;;18.50;99.90;;;;;;4957463;29;20134;-78
2022/05/19 00:08:42;;;;;;;40.00;21.47;;;18.50;99.90;;;;;;4957473;28;20399;-77
2022/05/19 00:11:15;;;;;;;41.67;22.52;;;18.50;99.90;;;;;;4957669;29;20132;-78
2022/05/19 00:13:41;;;;;;;44.13;22.13;;;18.40;99.90;;;;;;4956154;29;20404;-79
2022/05/19 00:16:07;;;;;;;41.60;24.75;;;18.30;99.90;;;;;;4957394;29;20055;-74
2022/05/19 00:18:34;;;;;;;40.77;23.57;;;18.30;99.90;;;;;;4940002;29;20134;-78
2022/05/19 00:21:00;;;;;;;44.03;23.67;;;18.30;99.90;;;;;;4955947;29;20141;-79
2022/05/19 00:23:26;;;;;;;49.83;24.42;;;18.30;99.90;;;;;;4957351;29;20053;-79
2022/05/19 00:25:52;;;;;;;47.20;23.20;;;18.30;99.90;;;;;;4955704;29;20423;-80
2022/05/19 00:28:18;;;;;;;44.43;23.70;;;18.30;99.90;;;;;;4956793;29;20051;-79
2022/05/19 00:30:44;;;;;;;48.47;23.50;;;18.20;99.90;;;;;;4955776;29;20102;-79
2022/05/19 00:33:10;;;;;;;41.00;22.93;;;18.20;99.90;;;;;;4955533;29;20039;-78
2022/05/19 00:35:38;;;;;;;42.72;23.60;;;18.10;99.90;;;;;;4956837;29;20051;-80
2022/05/19 00:38:05;;;;;;;40.35;23.92;;;18.10;99.90;;;;;;4955957;28;20169;-78
2022/05/19 00:40:32;;;;;;;40.10;23.08;;;18.00;99.90;;;;;;4956737;28;20039;-77
2022/05/19 00:42:58;;;;;;;44.67;23.48;;;17.90;99.90;;;;;;4955995;29;20435;-78
2022/05/19 00:45:27;;;;;;;42.80;22.93;;;17.90;99.90;;;;;;4955215;28;20051;-78
2022/05/19 00:48:17;;;;;;;44.30;24.05;;;17.80;99.90;;;;;;4971028;28;20058;-79
2022/05/19 00:51:01;;;;;;;44.72;23.65;;;17.80;99.90;;;;;;4938307;29;20047;-78
2022/05/19 00:53:28;;;;;;;34.78;21.17;;;17.70;99.90;;;;;;4954979;29;20046;-78
2022/05/19 00:55:54;;;;;;;39.47;22.45;;;17.70;99.90;;;;;;4955760;29;20590;-79
2022/05/19 00:58:26;;;;;;;45.03;23.58;;;17.70;99.90;;;;;;4956099;28;20352;-79
2022/05/19 01:00:54;;;;;;;40.05;22.30;;;17.70;99.90;;;;;;4955962;29;20197;-78
2022/05/19 01:03:21;;;;;;;36.50;21.92;;;17.70;99.90;;;;;;4970637;28;20051;-78
2022/05/19 01:05:57;;;;;;;41.95;22.85;;;17.60;99.90;;;;;;4954783;29;20130;-79
2022/05/19 01:08:34;;;;;;;41.25;24.35;;;17.60;99.90;;;;;;4955351;29;20435;-78
2022/05/19 01:11:02;;;;;;;44.47;24.50;;;17.50;99.90;;;;;;4957154;29;20114;-78
2022/05/19 01:13:31;;;;;;;41.03;24.05;;;17.50;99.90;;;;;;4955742;29;20130;-76
2022/05/19 01:15:59;;;;;;;44.92;23.33;;;17.50;99.90;;;;;;4956165;28;20059;-77
2022/05/19 01:18:27;;;;;;;42.55;24.33;;;17.40;99.90;;;;;;4956334;28;20051;-77
2022/05/19 01:20:54;;;;;;;46.58;25.15;;;17.40;99.90;;;;;;4956519;28;20042;-78
2022/05/19 01:23:43;;;;;;;44.25;24.35;;;17.40;99.90;;;;;;4954743;29;20172;-79
2022/05/19 01:26:27;;;;;;;45.47;24.10;;;17.40;99.90;;;;;;4944645;28;20228;-79
2022/05/19 01:28:56;;;;;;;44.33;24.25;;;17.40;99.90;;;;;;4955484;28;20452;-76
2022/05/19 01:31:33;;;;;;;47.25;25.38;;;17.30;99.90;;;;;;4954224;29;20051;-78
2022/05/19 01:34:00;;;;;;;47.30;25.27;;;17.30;99.90;;;;;;4955113;29;20146;-78
2022/05/19 01:36:26;;;;;;;42.40;24.85;;;17.30;99.90;;;;;;4938895;29;20062;-78
2022/05/19 01:39:07;;;;;;;42.53;24.48;;;17.20;99.90;;;;;;4954418;29;20051;-77
2022/05/19 01:41:43;;;;;;;47.25;25.33;;;17.20;99.90;;;;;;4955794;29;20058;-78
2022/05/19 01:44:16;;;;;;;50.35;25.70;;;17.20;99.90;;;;;;4954202;29;20055;-74
2022/05/19 01:46:48;;;;;;;44.75;26.23;;;17.20;99.90;;;;;;4956232;29;20134;-77
2022/05/19 01:49:39;;;;;;;47.50;25.50;;;17.10;99.90;;;;;;4970074;28;20043;-77
2022/05/19 01:52:16;;;;;;;46.90;25.80;;;17.10;99.90;;;;;;4954222;29;20499;-77
2022/05/19 01:55:16;;;;;;;45.25;25.23;;;17.10;99.90;;;;;;4955289;29;20049;-79
2022/05/19 01:58:00;;;;;;;45.80;24.77;;;17.00;99.90;;;;;;4956213;28;20110;-77
2022/05/19 02:00:28;;;;;;;47.08;25.15;;;17.00;99.90;;;;;;4955027;28;20051;-79
2022/05/19 02:03:09;;;;;;;47.97;26.23;;;17.00;99.90;;;;;;4955678;28;20059;-79
2022/05/19 02:05:49;;;;;;;48.13;26.17;;;16.90;99.90;;;;;;4938509;29;20039;-78
2022/05/19 02:08:30;;;;;;;44.20;26.73;;;16.90;99.90;;;;;;4953832;28;20373;-76
2022/05/19 02:11:01;;;;;;;50.08;27.48;;;16.90;99.90;;;;;;4955334;29;20086;-79
2022/05/19 02:13:30;;;;;;;46.95;27.48;;;16.80;99.90;;;;;;4954479;29;20047;-78
2022/05/19 02:15:58;;;;;;;48.80;26.73;;;16.80;99.90;;;;;;4952943;29;20070;-77
2022/05/19 02:18:25;;;;;;;51.08;28.25;;;16.80;99.90;;;;;;4955115;29;20359;-76
2022/05/19 02:20:53;;;;;;;52.42;27.05;;;16.80;99.90;;;;;;4954693;28;20058;-77
2022/05/19 02:23:19;;;;;;;50.38;27.70;;;16.80;99.90;;;;;;4954488;29;20101;-78
2022/05/19 02:25:50;;;;;;;47.45;26.48;;;16.70;99.90;;;;;;4954601;28;20039;-78
2022/05/19 02:28:18;;;;;;;50.60;27.85;;;16.70;99.90;;;;;;4955234;29;20050;-74
2022/05/19 02:30:45;;;;;;;46.65;27.02;;;16.80;99.90;;;;;;4969324;28;20058;-79
2022/05/19 02:33:16;;;;;;;52.40;28.95;;;16.80;99.90;;;;;;4938450;29;20141;-76
2022/05/19 02:35:43;;;;;;;54.05;27.33;;;16.70;99.90;;;;;;4954941;29;20091;-79
2022/05/19 02:38:09;;;;;;;52.03;29.45;;;16.70;99.90;;;;;;4938141;29;20055;-78
2022/05/19 02:40:37;;;;;;;51.35;28.77;;;16.70;99.90;;;;;;4955398;29;20098;-76
2022/05/19 02:43:04;;;;;;;50.95;28.27;;;16.70;99.90;;;;;;4955039;29;20051;-79
2022/05/19 02:45:32;;;;;;;54.15;29.63;;;16.80;99.90;;;;;;4954906;28;20039;-79
2022/05/19 02:47:58;;;;;;;55.20;29.15;;;16.80;99.90;;;;;;4955642;29;20375;-78
2022/05/19 02:50:24;;;;;;;54.22;30.83;;;16.80;99.90;;;;;;4956058;28;20423;-78
2022/05/19 02:52:50;;;;;;;54.67;30.27;;;16.90;99.90;;;;;;4954431;28;20055;-77
2022/05/19 02:55:17;;;;;;;56.93;31.30;;;16.90;99.90;;;;;;4954461;29;20055;-74
2022/05/19 02:57:43;;;;;;;56.92;31.08;;;16.90;99.90;;;;;;4969305;28;20448;-76
2022/05/19 03:00:14;;;;;;;52.30;30.50;;;16.90;99.90;;;;;;4953885;29;20138;-77
2022/05/19 03:02:41;;;;;;;58.75;32.65;;;16.90;99.90;;;;;;4969809;28;20328;-79
2022/05/19 03:05:09;;;;;;;56.08;31.52;;;16.90;99.90;;;;;;4953642;29;20507;-79
2022/05/19 03:07:35;;;;;;;57.72;31.65;;;16.80;99.90;;;;;;4969380;28;20135;-77
2022/05/19 03:10:02;;;;;;;66.93;33.03;;;16.80;99.90;;;;;;4953246;29;20052;-79
2022/05/19 03:12:28;;;;;;;57.72;32.97;;;16.90;99.90;;;;;;4956499;28;20398;-79
2022/05/19 03:14:54;;;;;;;57.78;34.00;;;16.90;99.90;;;;;;4974077;28;20057;-77
2022/05/19 03:17:20;;;;;;;60.20;34.17;;;16.80;99.90;;;;;;4974120;28;20062;-74
2022/05/19 03:19:47;;;;;;;63.93;34.30;;;16.90;99.90;;;;;;4958901;29;20054;-78
2022/05/19 03:22:12;;;;;;;62.67;33.83;;;16.90;99.90;;;;;;4958508;28;20381;-78
2022/05/19 03:24:38;;;;;;;60.55;34.13;;;16.80;99.90;;;;;;4958124;29;20189;-77
2022/05/19 03:27:05;;;;;;;62.72;35.65;;;16.90;99.90;;;;;;4956925;29;20479;-78
2022/05/19 03:29:31;;;;;;;65.35;36.17;;;16.80;99.90;;;;;;4956436;28;20138;-77
2022/05/19 03:31:59;;;;;;;60.35;35.97;;;16.80;99.90;;;;;;4941216;29;20055;-77
2022/05/19 03:34:24;;;;;;;61.17;35.83;;;16.80;99.90;;;;;;4956408;29;20119;-77
2022/05/19 03:36:50;;;;;;;61.00;36.33;;;16.70;99.90;;;;;;4940594;29;20138;-77
2022/05/19 03:39:17;;;;;;;62.53;33.92;;;17.00;99.90;;;;;;4956514;29;20472;-78
2022/05/19 03:41:42;;;;;;;65.30;35.40;;;16.70;99.90;;;;;;4958542;29;20204;-79
2022/05/19 03:44:08;;;;;;;64.88;36.22;;;16.70;99.90;;;;;;4941286;29;20435;-74
2022/05/19 03:46:34;;;;;;;73.00;37.63;;;16.60;99.90;;;;;;4957096;29;20502;-78
2022/05/19 03:49:01;;;;;;;67.40;37.13;;;16.60;99.90;;;;;;4940508;29;20475;-78
2022/05/19 03:51:29;;;;;;;64.85;36.90;;;16.60;99.90;;;;;;4956233;29;20044;-77
2022/05/19 03:53:56;;;;;;;67.00;36.92;;;16.70;99.90;;;;;;4956207;29;20169;-77
2022/05/19 03:56:23;;;;;;;66.68;36.25;;;16.60;99.90;;;;;;4958067;29;20045;-77
2022/05/19 03:58:49;;;;;;;66.00;37.90;;;16.60;99.90;;;;;;4957150;29;20062;-77
2022/05/19 04:01:17;;;;;;;69.97;38.05;;;16.60;99.90;;;;;;4958455;29;20062;-77
2022/05/19 04:03:44;;;;;;;64.72;36.40;;;16.60;99.90;;;;;;4957831;28;20059;-77
2022/05/19 04:06:10;;;;;;;71.93;37.65;;;16.60;99.90;;;;;;4942554;29;20043;-77
2022/05/19 04:08:36;;;;;;;65.25;37.75;;;16.60;99.90;;;;;;4958911;29;20093;-78
2022/05/19 04:11:02;;;;;;;64.28;37.25;;;16.70;99.90;;;;;;4959234;29;20050;-77
2022/05/19 04:13:28;;;;;;;61.65;37.78;;;16.80;99.90;;;;;;4958494;29;20043;-78
2022/05/19 04:15:54;;;;;;;63.30;36.35;;;16.80;99.90;;;;;;4973295;28;20062;-78
2022/05/19 04:18:19;;;;;;;70.43;36.67;;;16.80;99.90;;;;;;4973404;28;20511;-78
2022/05/19 04:20:45;;;;;;;63.20;35.17;;;16.90;99.90;;;;;;4958604;29;20129;-78
2022/05/19 04:23:11;;;;;;;61.90;35.95;;;16.90;99.90;;;;;;4958614;28;20201;-75
2022/05/19 04:25:38;;;;;;;60.58;36.50;;;17.00;99.90;;;;;;4955800;29;20059;-77
2022/05/19 04:28:05;;;;;;;67.07;36.88;;;17.00;99.90;;;;;;4956464;29;20051;-78
2022/05/19 04:30:31;;;;;;;64.57;37.03;;;17.10;99.90;;;;;;4941223;29;20051;-78
2022/05/19 04:32:56;;;;;;;63.97;38.92;;;17.20;99.90;;;;;;4959892;29;20130;-77
2022/05/19 04:35:22;;;;;;;67.03;40.13;;;17.20;99.90;;;;;;4960859;28;20105;-76
2022/05/19 04:37:48;;;;;;;70.93;38.97;;;17.30;99.90;;;;;;4958256;29;20444;-79
2022/05/19 04:40:16;;;;;;;65.47;38.83;;;17.30;99.90;;;;;;4956966;29;20066;-78
2022/05/19 04:42:43;;;;;;;70.47;37.75;;;17.30;99.90;;;;;;4957948;29;20287;-80
2022/05/19 04:45:14;;;;;;;64.28;38.30;;;17.40;99.90;;;;;;4957786;29;20082;-77
2022/05/19 04:47:40;;;;;;;63.90;38.25;;;17.40;99.90;;;;;;4957082;29;20047;-79
2022/05/19 04:50:07;;;;;;;66.30;39.20;;;17.50;99.90;;;;;;4955572;28;20467;-79
2022/05/19 04:52:33;;;;;;;68.28;38.05;;;17.50;99.90;;;;;;4956948;28;20051;-79
2022/05/19 04:54:59;;;;;;;69.33;38.17;;;17.60;99.90;;;;;;4957451;29;20047;-76
2022/05/19 04:57:25;;;;;;;71.23;38.50;;;17.50;99.90;;;;;;4955885;29;20047;-79
2022/05/19 04:59:51;;;;;;;64.22;38.13;;;17.60;99.90;;;;;;4956726;29;20035;-79
2022/05/19 05:02:17;;;;;;;67.20;38.57;;;17.60;99.90;;;;;;4958329;29;20484;-79
2022/05/19 05:04:43;;;;;;;65.47;39.47;;;17.60;99.90;;;;;;4942103;29;20059;-78
2022/05/19 05:07:09;;;;;;;65.40;37.27;;;17.70;99.90;;;;;;4959315;29;20066;-78
2022/05/19 05:09:34;;;;;;;64.60;37.57;;;17.80;99.90;;;;;;4959930;29;20043;-76
2022/05/19 05:12:01;;;;;;;64.17;36.40;;;17.90;99.90;;;;;;4980054;28;20069;-80
2022/05/19 05:14:26;;;;;;;56.90;35.03;;;18.00;99.90;;;;;;4966360;29;20059;-78
2022/05/19 05:16:54;;;;;;;60.77;36.97;;;18.10;99.90;;;;;;4968189;29;20055;-77
2022/05/19 05:19:22;;;;;;;55.90;34.00;;;18.20;99.90;;;;;;4965229;28;20130;-79
2022/05/19 05:22:06;;;;;;;56.50;33.30;;;18.40;99.90;;;;;;4965782;29;20051;-79
2022/05/19 05:24:33;;;;;;;54.25;32.80;;;18.60;99.90;;;;;;4982277;28;20067;-79
2022/05/19 05:26:59;;;;;;;52.47;31.63;;;18.70;99.90;;;;;;4950282;29;20051;-79
2022/05/19 05:29:24;;;;;;;53.33;31.50;;;18.80;99.90;;;;;;4967294;29;20110;-81
2022/05/19 05:31:51;;;;;;;54.30;31.60;;;18.90;99.90;;;;;;4965957;28;20039;-79
2022/05/19 05:34:16;;;;;;;48.50;30.27;;;19.10;99.90;;;;;;4962531;29;20071;-81
2022/05/19 05:36:42;;;;;;;49.70;29.83;;;19.10;99.90;;;;;;4961019;28;20063;-80
2022/05/19 05:39:08;;;;;;;47.00;27.83;;;19.30;99.90;;;;;;4961901;29;20099;-78
2022/05/19 05:41:33;;;;;;;44.83;28.40;;;19.50;99.90;;;;;;4963462;29;20043;-77
2022/05/19 05:43:59;;;;;;;41.47;25.33;;;19.70;99.90;;;;;;4961247;29;20058;-77
2022/05/19 05:46:25;;;;;;;37.47;23.40;;;19.90;99.90;;;;;;4961395;28;20101;-80
2022/05/19 05:48:51;;;;;;;35.27;22.57;;;20.10;99.90;;;;;;4961698;29;20051;-79
2022/05/19 05:51:17;;;;;;;33.22;19.33;;;20.20;99.90;;;;;;4963689;29;20051;-80
2022/05/19 05:53:45;;;;;;;27.70;16.43;;;20.40;99.90;;;;;;4977545;28;20053;-80
2022/05/19 05:56:19;;;;;;;26.55;15.82;;;20.50;99.90;;;;;;4959954;29;20113;-80
2022/05/19 05:58:45;;;;;;;21.35;12.63;;;20.60;99.90;;;;;;4975635;28;20127;-80
2022/05/19 06:01:14;;;;;;;17.42;10.18;;;20.60;99.90;;;;;;4975387;28;20058;-78
2022/05/19 06:03:40;;;;;;;18.73;9.65;;;20.60;99.90;;;;;;4960577;29;20051;-80
2022/05/19 06:06:06;;;;;;;19.65;10.15;;;20.70;99.90;;;;;;4962061;28;20164;-77
2022/05/19 06:08:35;;;;;;;16.80;8.65;;;20.80;99.90;;;;;;4962703;29;20191;-79
2022/05/19 06:11:08;;;;;;;16.88;7.55;;;20.90;99.90;;;;;;4962649;29;20403;-81
2022/05/19 06:13:34;;;;;;;14.75;7.57;;;20.90;99.90;;;;;;4962776;29;20053;-82
2022/05/19 06:16:00;;;;;;;14.88;6.88;;;20.90;99.90;;;;;;4962899;29;20119;-79
2022/05/19 06:18:29;;;;;;;13.73;5.67;;;21.00;99.90;;;;;;4977730;28;20090;-80
2022/05/19 06:20:55;;;;;;;11.05;5.10;;;20.90;99.90;;;;;;4957875;29;20055;-77
2022/05/19 06:23:22;;;;;;;8.37;5.40;;;20.90;99.90;;;;;;4955916;29;20455;-77
2022/05/19 06:25:48;;;;;;;13.15;4.53;;;20.90;99.90;;;;;;4958535;29;20043;-80
2022/05/19 06:28:14;;;;;;;10.20;4.78;;;20.90;99.90;;;;;;4975436;28;20415;-79
2022/05/19 06:30:41;;;;;;;8.90;5.03;;;21.00;99.90;;;;;;4963969;28;20071;-75
2022/05/19 06:33:07;;;;;;;9.02;4.60;;;21.20;99.90;;;;;;4964328;29;20047;-81
2022/05/19 06:35:34;;;;;;;11.40;4.35;;;21.30;99.90;;;;;;4962650;29;20059;-79
2022/05/19 06:38:00;;;;;;;8.05;4.25;;;21.30;99.90;;;;;;4960461;28;20047;-80
2022/05/19 06:40:28;;;;;;;9.15;4.40;;;21.50;99.90;;;;;;4943322;29;20047;-79
2022/05/19 06:42:55;;;;;;;9.52;4.28;;;21.40;99.90;;;;;;4959185;29;20051;-81
2022/05/19 06:45:25;;;;;;;9.60;4.18;;;21.50;99.90;;;;;;4958045;29;20043;-80
2022/05/19 06:47:52;;;;;;;7.30;3.80;;;21.30;99.90;;;;;;4956495;29;20051;-78
2022/05/19 06:50:19;;;;;;;8.20;3.88;;;21.30;99.90;;;;;;4956403;28;20047;-80
2022/05/19 06:52:53;;;;;;;7.20;3.72;;;21.30;99.90;;;;;;4955892;29;20070;-79
2022/05/19 06:55:21;;;;;;;7.60;3.45;;;21.20;99.90;;;;;;4971759;28;20050;-82
2022/05/19 06:57:47;;;;;;;8.25;3.40;;;21.20;99.90;;;;;;4955811;29;20058;-81
2022/05/19 07:00:17;;;;;;;8.32;3.83;;;21.30;99.90;;;;;;4957000;29;20050;-79
2022/05/19 07:02:47;;;;;;;10.32;4.15;;;21.40;99.90;;;;;;4941024;29;20047;-72
2022/05/19 07:05:19;;;;;;;7.78;3.72;;;21.60;99.90;;;;;;4973098;28;20051;-80
2022/05/19 07:07:46;;;;;;;8.75;3.58;;;21.60;99.90;;;;;;4959604;29;20051;-78
2022/05/19 07:10:15;;;;;;;8.93;4.18;;;21.50;99.90;;;;;;4959198;29;20051;-79
2022/05/19 07:12:43;;;;;;;9.45;3.63;;;21.70;99.90;;;;;;4941466;29;20051;-79
2022/05/19 07:15:09;;;;;;;10.82;3.88;;;21.80;99.90;;;;;;4961705;29;20481;-79
2022/05/19 07:17:35;;;;;;;8.82;4.13;;;21.90;99.90;;;;;;4963381;28;20054;-77
2022/05/19 07:22:46;;;;;;;8.73;3.70;;;21.90;99.90;;;;;;4962945;29;20047;-76
2022/05/19 07:25:12;;;;;;;7.97;3.50;;;21.90;99.90;;;;;;4962442;28;20079;-78
2022/05/19 07:27:38;;;;;;;7.57;3.40;;;21.70;99.90;;;;;;4961993;28;20067;-78
2022/05/19 07:30:05;;;;;;;6.78;3.17;;;21.60;99.90;;;;;;4961158;29;20130;-79
2022/05/19 07:32:30;;;;;;;10.25;3.63;;;21.40;99.90;;;;;;4960555;28;20051;-79
2022/05/19 07:34:56;;;;;;;7.47;3.27;;;21.20;99.90;;;;;;4958814;29;20039;-76
2022/05/19 07:37:24;;;;;;;10.53;3.23;;;21.10;99.90;;;;;;4960271;29;20050;-77
2022/05/19 07:39:54;;;;;;;8.45;4.00;;;21.00;99.90;;;;;;4959820;29;20051;-75
2022/05/19 07:42:20;;;;;;;8.25;3.88;;;20.70;99.90;;;;;;4961443;29;20058;-77
2022/05/19 07:44:46;;;;;;;;;;;20.60;99.90;;;;;;4964558;29;20557;-78
2022/05/19 07:47:14;;;;;;;6.22;2.72;;;20.50;99.90;;;;;;4967482;29;19926;-75
2022/05/19 07:49:41;;;;;;;6.07;3.22;;;20.40;99.90;;;;;;4967922;29;20042;-78
2022/05/19 07:52:07;;;;;;;8.20;3.78;;;20.30;99.90;;;;;;4968050;28;20061;-76
2022/05/19 07:54:33;;;;;;;8.13;3.30;;;20.30;99.90;;;;;;4947658;29;20058;-76
2022/05/19 07:56:59;;;;;;;8.38;3.03;;;20.30;99.90;;;;;;4956422;29;20377;-76
2022/05/19 07:59:25;;;;;;;6.20;3.00;;;20.30;99.90;;;;;;4957567;28;20043;-78
2022/05/19 08:01:52;;;;;;;7.25;3.03;;;20.20;99.90;;;;;;4958361;29;20051;-77
2022/05/19 08:04:22;;;;;;;12.60;3.50;;;20.10;99.90;;;;;;4973663;28;20050;-78
2022/05/19 08:06:48;;;;;;;12.02;3.53;;;19.80;99.90;;;;;;4958391;29;20051;-75
2022/05/19 08:11:59;;;;;;;10.23;3.90;;;19.70;99.90;;;;;;4957848;29;20043;-75
2022/05/19 08:17:10;;;;;;;10.15;4.70;;;19.80;99.90;;;;;;4956946;29;20073;-76
2022/05/19 08:19:39;;;;;;;10.90;4.63;;;19.90;99.90;;;;;;4957657;29;20047;-76
2022/05/19 08:22:08;;;;;;;10.55;5.25;;;20.10;99.90;;;;;;4955737;29;20058;-74
2022/05/19 08:24:35;;;;;;;15.15;6.72;;;20.30;99.90;;;;;;4956631;29;20098;-78
2022/05/19 08:27:02;;;;;;;15.40;7.13;;;20.30;99.90;;;;;;4956211;29;20056;-76
2022/05/19 08:29:29;;;;;;;10.85;6.70;;;20.50;99.90;;;;;;4956891;28;20047;-77
2022/05/19 08:31:55;;;;;;;14.80;6.93;;;20.80;99.90;;;;;;4957254;28;20051;-75
2022/05/19 08:34:22;;;;;;;16.77;8.80;;;20.90;99.90;;;;;;4955567;28;20055;-77
2022/05/19 08:36:48;;;;;;;13.98;7.72;;;21.20;99.90;;;;;;4956759;29;20047;-78
2022/05/19 08:39:14;;;;;;;15.40;8.55;;;21.40;99.90;;;;;;4955522;28;20110;-76
2022/05/19 08:41:45;;;;;;;16.83;8.88;;;21.60;99.90;;;;;;4955363;29;20492;-78
2022/05/19 08:44:31;;;;;;;17.90;9.25;;;21.80;99.90;;;;;;4939649;29;20476;-76
2022/05/19 08:47:00;;;;;;;16.15;9.75;;;21.90;99.90;;;;;;4956857;29;20460;-77
2022/05/19 08:49:47;;;;;;;17.95;10.43;;;22.00;99.90;;;;;;4956178;28;20484;-75
2022/05/19 08:52:16;;;;;;;17.95;10.15;;;22.00;99.90;;;;;;4955992;29;20058;-76
2022/05/19 08:54:45;;;;;;;17.27;10.93;;;22.10;99.90;;;;;;4957286;28;20115;-76
2022/05/19 08:57:26;;;;;;;21.50;11.25;;;22.30;99.90;;;;;;4955755;29;20507;-74
2022/05/19 08:59:52;;;;;;;21.73;12.15;;;22.20;99.90;;;;;;4955658;29;20059;-75
2022/05/19 09:02:47;;;;;;;17.87;11.13;;;22.50;99.90;;;;;;4956418;29;20058;-76
2022/05/19 09:05:25;;;;;;;21.88;11.65;;;22.70;99.90;;;;;;4926837;29;20055;-78
2022/05/19 09:08:24;;;;;;;18.17;10.98;;;22.80;99.90;;;;;;4955817;29;20062;-79
2022/05/19 09:10:59;;;;;;;22.83;13.57;;;22.90;99.90;;;;;;4971042;28;20054;-78
2022/05/19 09:13:37;;;;;;;20.45;11.55;;;23.00;99.90;;;;;;4972708;28;20047;-79
2022/05/19 09:16:15;;;;;;;18.95;12.63;;;23.10;99.90;;;;;;4958597;29;20118;-79
2022/05/19 09:19:23;;;;;;;20.42;12.77;;;22.70;99.90;;;;;;4958070;28;20062;-80
2022/05/19 09:22:06;;;;;;;19.45;10.35;;;23.10;99.90;;;;;;4915978;29;20146;-78
2022/05/19 09:24:33;;;;;;;15.30;9.73;;;23.30;99.90;;;;;;4952678;29;20062;-75
2022/05/19 09:27:01;;;;;;;17.95;10.50;;;23.50;99.90;;;;;;4956962;28;20395;-80
2022/05/19 09:29:37;;;;;;;16.25;11.13;;;23.70;99.90;;;;;;4956509;29;20062;-76
2022/05/19 09:32:08;;;;;;;15.77;10.77;;;23.70;99.90;;;;;;4955987;29;20414;-80
2022/05/19 09:34:36;;;;;;;17.58;11.00;;;23.80;99.90;;;;;;4956316;29;20118;-79
2022/05/19 09:37:18;;;;;;;19.67;11.25;;;24.10;99.90;;;;;;4956332;28;20051;-79
2022/05/19 09:40:14;;;;;;;17.55;9.93;;;24.00;99.90;;;;;;4956174;29;20048;-80
2022/05/19 09:42:53;;;;;;;13.35;8.05;;;24.00;99.90;;;;;;4953775;29;20146;-79
2022/05/19 09:45:23;;;;;;;13.13;8.25;;;24.20;99.90;;;;;;4955821;28;20077;-80
2022/05/19 09:47:56;;;;;;;12.57;7.95;;;24.20;99.90;;;;;;4954670;29;20047;-79
2022/05/19 09:50:26;;;;;;;14.30;8.70;;;24.00;99.90;;;;;;4955615;29;20047;-79
2022/05/19 09:53:03;;;;;;;11.82;6.80;;;23.50;99.90;;;;;;4955072;29;20051;-78
2022/05/19 09:55:29;;;;;;;10.02;5.35;;;24.10;99.90;;;;;;4956328;29;20455;-79
2022/05/19 09:57:58;;;;;;;11.93;6.28;;;24.30;99.90;;;;;;4956635;28;20074;-81
2022/05/19 10:00:39;;;;;;;7.85;4.95;;;24.30;99.90;;;;;;4955284;29;20054;-79
2022/05/19 10:03:18;;;;;;;8.73;4.88;;;24.70;99.90;;;;;;4954472;29;20044;-78
2022/05/19 10:05:48;;;;;;;9.07;4.05;;;25.00;99.90;;;;;;4955814;28;20047;-77
2022/05/19 10:08:23;;;;;;;8.93;4.18;;;25.00;99.90;;;;;;4955453;29;20051;-80
2022/05/19 10:11:05;;;;;;;9.05;4.55;;;25.00;99.90;;;;;;4954430;29;20047;-79
2022/05/19 10:13:55;;;;;;;8.55;3.83;;;25.10;99.90;;;;;;4938514;29;20061;-78
2022/05/19 10:16:42;;;;;;;11.05;4.53;;;25.20;99.90;;;;;;4954633;29;20383;-79
2022/05/19 10:19:12;;;;;;;10.15;4.90;;;25.00;99.90;;;;;;4955121;29;20058;-77
2022/05/19 10:21:55;;;;;;;8.75;4.28;;;25.30;99.90;;;;;;4956345;28;20043;-77
2022/05/19 10:24:39;;;;;;;8.38;4.57;;;25.50;99.90;;;;;;4955532;29;20048;-78
2022/05/19 10:34:05;;;;;;;11.00;4.97;;;25.30;99.90;;;;;;4955119;28;20059;-79
2022/05/19 10:36:45;;;;;;;11.50;5.75;;;25.30;99.90;;;;;;4958322;29;20043;-77
2022/05/19 10:40:11;;;;;;;10.35;5.50;;;25.20;99.90;;;;;;4958052;29;20503;-79
2022/05/19 10:42:49;;;;;;;10.63;5.10;;;25.30;99.90;;;;;;4904644;29;20051;-80
2022/05/19 10:45:28;;;;;;;9.02;4.97;;;25.40;99.90;;;;;;4933716;29;20070;-79
2022/05/19 10:48:31;;;;;;;9.85;5.45;;;25.50;99.90;;;;;;4951949;28;20102;-79
2022/05/19 10:51:03;;;;;;;9.13;4.72;;;25.60;99.90;;;;;;4954292;29;20052;-77
2022/05/19 10:53:39;;;;;;;10.38;5.80;;;25.60;99.90;;;;;;4955406;29;20531;-82
2022/05/19 10:56:20;;;;;;;8.20;5.57;;;25.50;99.90;;;;;;4973404;28;20118;-76
2022/05/19 10:58:52;;;;;;;8.90;5.63;;;25.50;99.90;;;;;;4961583;29;20074;-78
2022/05/19 11:01:48;;;;;;;9.40;5.00;;;25.40;99.90;;;;;;4955909;29;20134;-78
2022/05/19 11:04:38;;;;;;;6.10;2.88;;;25.40;99.90;;;;;;4955449;29;20126;-79
2022/05/19 11:07:04;;;;;;;5.72;3.40;;;25.50;99.90;;;;;;4954298;29;20083;-79
2022/05/19 11:09:47;;;;;;;8.83;4.40;;;25.50;99.90;;;;;;4955082;28;20082;-78
2022/05/19 11:12:24;;;;;;;6.40;4.22;;;25.60;99.90;;;;;;4955199;29;20058;-79
2022/05/19 11:14:57;;;;;;;7.93;4.30;;;25.70;99.90;;;;;;4971349;28;20056;-81
2022/05/19 11:17:50;;;;;;;7.00;3.80;;;25.80;99.90;;;;;;4971979;28;20051;-78
2022/05/19 11:20:30;;;;;;;7.25;4.45;;;25.90;99.90;;;;;;4954256;29;20055;-79
2022/05/19 11:23:30;;;;;;;9.50;4.43;;;26.00;99.00;;;;;;4955905;29;20474;-79
2022/05/19 11:26:25;;;;;;;9.60;4.63;;;26.10;98.90;;;;;;4905616;28;20056;-83
2022/05/19 11:29:06;;;;;;;9.30;4.47;;;26.30;98.70;;;;;;4955594;28;20050;-80
2022/05/19 11:31:47;;;;;;;8.60;4.25;;;26.50;97.20;;;;;;4958012;29;20058;-79
2022/05/19 11:34:35;;;;;;;8.00;4.88;;;26.60;97.00;;;;;;4959653;28;20097;-81
2022/05/19 11:37:07;;;;;;;8.38;4.00;;;26.80;95.90;;;;;;4960662;29;20139;-80
2022/05/19 11:39:39;;;;;;;13.82;4.35;;;26.90;96.40;;;;;;4962382;29;20102;-78
2022/05/19 11:42:34;;;;;;;8.55;4.95;;;27.00;96.60;;;;;;4961541;28;20056;-81
2022/05/19 11:45:03;;;;;;;10.00;4.63;;;27.20;95.40;;;;;;4961964;28;20126;-80
2022/05/19 11:57:37;;;;;;;10.68;5.22;;;27.70;94.00;;;;;;4959223;28;20059;-79
2022/05/19 12:00:06;;;;;;;8.85;3.40;;;27.70;93.10;;;;;;4958813;29;20051;-83
2022/05/19 12:02:53;;;;;;;7.03;3.50;;;27.80;93.70;;;;;;4977357;28;20051;-79
2022/05/19 12:05:36;;;;;;;6.03;3.20;;;28.00;92.50;;;;;;4959894;28;20047;-80
2022/05/19 12:08:14;;;;;;;7.43;3.47;;;27.90;90.90;;;;;;4958400;29;20109;-81
2022/05/19 12:10:43;;;;;;;5.88;3.47;;;27.90;91.70;;;;;;4958940;28;20043;-79
2022/05/19 12:13:10;;;;;;;5.60;3.22;;;27.80;91.70;;;;;;4960105;28;20165;-79
2022/05/19 12:15:53;;;;;;;6.35;2.95;;;27.70;91.10;;;;;;4958788;29;20461;-78
2022/05/19 12:18:24;;;;;;;5.97;3.00;;;27.80;91.30;;;;;;4942532;29;20051;-79
2022/05/19 12:20:52;;;;;;;7.68;3.00;;;27.70;90.80;;;;;;4957292;29;20133;-81
2022/05/19 12:23:18;;;;;;;7.75;2.78;;;27.40;86.80;;;;;;4957259;28;20059;-79
2022/05/19 12:25:51;;;;;;;6.93;3.37;;;26.70;90.60;;;;;;4956651;29;20051;-76
2022/05/19 12:28:19;;;;;;;5.95;2.80;;;26.40;90.40;;;;;;4956498;29;20806;-77
2022/05/19 12:34:04;;;;;;;4.53;2.35;;;26.20;91.50;;;;;;4957351;29;20051;-78
2022/05/19 12:36:50;;;;;;;4.68;2.65;;;26.20;91.50;;;;;;4956736;28;20051;-80
2022/05/19 12:39:16;;;;;;;5.68;2.83;;;26.10;91.30;;;;;;4955811;28;20059;-81
2022/05/19 12:41:50;;;;;;;5.43;3.27;;;26.00;91.60;;;;;;4957081;29;20057;-79
2022/05/19 12:44:25;;;;;;;9.15;3.25;;;26.00;91.50;;;;;;4971443;28;20313;-80
2022/05/19 12:46:58;;;;;;;6.95;2.85;;;25.80;92.20;;;;;;4956466;28;20048;-81
2022/05/19 12:49:28;;;;;;;5.75;2.60;;;25.70;93.00;;;;;;4956830;28;20065;-81
2022/05/19 12:52:13;;;;;;;4.97;2.30;;;25.60;93.30;;;;;;4956146;29;20051;-79
2022/05/19 12:55:09;;;;;;;5.68;3.00;;;25.40;92.30;;;;;;4957114;28;20090;-81
2022/05/19 12:57:38;;;;;;;10.57;3.40;;;25.20;94.20;;;;;;4960292;29;20058;-79
2022/05/19 13:00:18;;;;;;;7.95;3.20;;;24.70;96.80;;;;;;4958268;28;20039;-79
2022/05/19 13:02:59;;;;;;;6.72;3.65;;;24.30;99.20;;;;;;4957240;29;20051;-83
2022/05/19 13:05:42;;;;;;;21.13;5.68;;;23.70;99.90;;;;;;4956965;28;20487;-78
2022/05/19 13:08:15;;;;;;;17.42;5.03;;;23.30;99.90;;;;;;4939617;29;20153;-79
2022/05/19 13:10:46;;;;;;;18.25;5.57;;;22.60;99.90;;;;;;4956180;29;20050;-79
2022/05/19 13:13:39;;;;;;;22.90;6.22;;;21.70;99.90;;;;;;4956508;28;20051;-80
2022/05/19 13:16:24;;;;;;;14.90;6.90;;;21.10;99.90;;;;;;4955220;29;20059;-81
2022/05/19 13:18:58;;;;;;;23.30;8.25;;;20.60;99.90;;;;;;4955789;29;20066;-79
2022/05/19 13:21:28;;;;;;;11.80;6.45;;;20.40;99.90;;;;;;4956247;29;20126;-80
2022/05/19 13:23:55;;;;;;;13.13;6.93;;;20.40;99.90;;;;;;4956040;29;20047;-80
2022/05/19 13:26:29;;;;;;;18.33;7.88;;;20.00;99.90;;;;;;4955449;29;20055;-79